Time;durP1;ratioP1;P1;durP2;ratioP2;P2;SDS_P1;SDS_P2;PMS_P1;PMS_P2;Temp;Humidity;BMP_temperature;BMP_pressure;BME280_temperature;BME280_humidity;BME280_pressure;Samples;Min_cycle;Max_cycle;Signal;HPM_P1;HPM_P2
2021/10/05 00:00:11;;;;;;;1.65;0.30;;;11.70;99.90;;;;;;5014430;28;20080;-76
2021/10/05 00:02:37;;;;;;;1.88;0.08;;;11.70;99.90;;;;;;5014158;28;20037;-76
2021/10/05 00:05:03;;;;;;;3.17;0.08;;;11.70;99.90;;;;;;5025860;28;20086;-76
2021/10/05 00:07:29;;;;;;;1.42;0.00;;;11.60;99.90;;;;;;5033336;28;20013;-76
2021/10/05 00:09:54;;;;;;;0.28;0.00;;;11.60;99.90;;;;;;5032528;28;20156;-77
2021/10/05 00:12:20;;;;;;;2.38;0.00;;;11.50;99.90;;;;;;5034335;28;20060;-77
2021/10/05 00:14:46;;;;;;;3.40;0.20;;;11.50;99.90;;;;;;5034474;28;20033;-77
2021/10/05 00:17:11;;;;;;;1.08;0.00;;;11.40;99.90;;;;;;5033717;28;20024;-78
2021/10/05 00:19:37;;;;;;;1.05;0.00;;;11.40;99.90;;;;;;5031884;28;20021;-78
2021/10/05 00:22:04;;;;;;;0.10;0.00;;;11.40;99.90;;;;;;5032722;28;20025;-78
2021/10/05 00:24:29;;;;;;;2.33;0.00;;;11.40;99.90;;;;;;5032329;28;20052;-78
2021/10/05 00:26:55;;;;;;;4.22;0.00;;;11.40;99.90;;;;;;5032370;28;20053;-78
2021/10/05 00:29:20;;;;;;;0.75;0.00;;;11.40;99.90;;;;;;5032576;28;20124;-78
2021/10/05 00:31:46;;;;;;;2.45;0.00;;;11.50;99.90;;;;;;5033207;28;20505;-78
2021/10/05 00:34:12;;;;;;;0.75;0.00;;;11.50;99.90;;;;;;5033507;28;20084;-78
2021/10/05 00:36:37;;;;;;;0.30;0.00;;;11.50;99.90;;;;;;5032405;28;20032;-78
2021/10/05 00:39:03;;;;;;;1.15;0.32;;;11.50;99.90;;;;;;5033783;28;20030;-78
2021/10/05 00:41:28;;;;;;;1.23;0.15;;;11.50;99.90;;;;;;5034438;28;20057;-78
2021/10/05 00:43:59;;;;;;;0.90;0.00;;;11.60;99.90;;;;;;5032287;28;20029;-78
2021/10/05 00:46:24;;;;;;;1.00;0.00;;;11.60;99.90;;;;;;5035219;28;20045;-79
2021/10/05 00:48:50;;;;;;;1.02;0.00;;;11.60;99.90;;;;;;5032170;28;20060;-78
2021/10/05 00:51:15;;;;;;;0.22;0.00;;;11.60;99.90;;;;;;5032166;28;20545;-77
2021/10/05 00:53:41;;;;;;;2.58;0.00;;;11.60;99.90;;;;;;5033380;28;20367;-78
2021/10/05 00:56:07;;;;;;;0.30;0.10;;;11.60;99.90;;;;;;5032073;28;20092;-77
2021/10/05 00:58:33;;;;;;;0.98;0.00;;;11.60;99.90;;;;;;5033426;28;20496;-78
2021/10/05 01:01:00;;;;;;;1.95;0.35;;;11.60;99.90;;;;;;5024070;28;20026;-78
2021/10/05 01:03:26;;;;;;;0.17;0.00;;;11.60;99.90;;;;;;5014813;28;20026;-79
2021/10/05 01:05:52;;;;;;;2.03;0.00;;;11.70;99.90;;;;;;5016686;28;20022;-78
2021/10/05 01:08:19;;;;;;;4.43;0.52;;;11.80;99.90;;;;;;5017488;28;20041;-78
2021/10/05 01:10:45;;;;;;;0.95;0.00;;;11.80;99.90;;;;;;5017035;28;20034;-79
2021/10/05 01:13:10;;;;;;;2.13;0.05;;;11.80;99.90;;;;;;5018371;28;20116;-78
2021/10/05 01:15:36;;;;;;;1.75;0.00;;;11.80;99.90;;;;;;5017390;28;20030;-78
2021/10/05 01:18:02;;;;;;;5.10;0.52;;;11.80;99.90;;;;;;5017205;28;20521;-78
2021/10/05 01:20:27;;;;;;;2.50;0.40;;;11.70;99.90;;;;;;5016840;28;20080;-77
2021/10/05 01:22:53;;;;;;;2.47;0.10;;;11.70;99.90;;;;;;5029727;28;20021;-78
2021/10/05 01:25:19;;;;;;;0.10;0.00;;;11.60;99.90;;;;;;5034040;28;20022;-78
2021/10/05 01:27:49;;;;;;;1.63;0.00;;;12.10;99.90;;;;;;5017130;28;20037;-78
2021/10/05 01:30:18;;;;;;;2.55;0.00;;;11.50;99.90;;;;;;5015565;28;20109;-78
2021/10/05 01:32:44;;;;;;;1.65;0.00;;;11.40;99.90;;;;;;5028227;28;20116;-78
2021/10/05 01:35:11;;;;;;;1.50;0.00;;;11.40;99.90;;;;;;5036668;28;20029;-78
2021/10/05 01:37:37;;;;;;;1.55;0.25;;;11.40;99.90;;;;;;5037330;28;20079;-78
2021/10/05 01:40:09;;;;;;;1.90;0.00;;;11.30;99.90;;;;;;5035333;28;20021;-78
2021/10/05 01:42:35;;;;;;;0.57;0.00;;;11.30;99.90;;;;;;5025813;28;20026;-78
2021/10/05 01:45:01;;;;;;;3.42;0.65;;;11.30;99.90;;;;;;5015538;28;20496;-78
2021/10/05 01:47:26;;;;;;;4.07;0.10;;;11.30;99.90;;;;;;5016838;28;20022;-78
2021/10/05 01:49:52;;;;;;;2.17;0.30;;;11.30;99.90;;;;;;5016653;28;20026;-78
2021/10/05 01:52:17;;;;;;;2.45;0.00;;;11.20;99.90;;;;;;5015707;28;20026;-77
2021/10/05 01:54:43;;;;;;;1.92;0.00;;;11.20;99.90;;;;;;5016669;28;20386;-78
2021/10/05 01:57:09;;;;;;;0.57;0.15;;;11.10;99.90;;;;;;5015327;28;20498;-76
2021/10/05 01:59:34;;;;;;;3.05;0.40;;;11.50;99.90;;;;;;5016463;28;20097;-77
2021/10/05 02:02:00;;;;;;;1.52;0.20;;;11.10;99.90;;;;;;5019960;28;20022;-77
2021/10/05 02:04:25;;;;;;;2.30;0.00;;;11.10;99.90;;;;;;5028879;28;20029;-77
2021/10/05 02:06:51;;;;;;;2.85;0.03;;;11.00;99.90;;;;;;5015249;28;20017;-77
2021/10/05 02:09:17;;;;;;;3.10;0.38;;;11.00;99.90;;;;;;5016334;28;20049;-77
2021/10/05 02:11:42;;;;;;;3.03;0.00;;;11.00;99.90;;;;;;5015161;28;20014;-77
2021/10/05 02:14:08;;;;;;;4.88;0.10;;;11.00;99.90;;;;;;5016758;28;20021;-77
2021/10/05 02:16:35;;;;;;;1.45;0.00;;;10.90;99.90;;;;;;5013743;28;20079;-77
2021/10/05 02:19:01;;;;;;;2.00;0.00;;;10.90;99.90;;;;;;5016268;28;20032;-77
2021/10/05 02:21:27;;;;;;;2.35;0.00;;;11.00;99.90;;;;;;5014992;28;20037;-77
2021/10/05 02:26:37;;;;;;;4.88;0.90;;;11.10;99.90;;;;;;5036847;28;20032;-76
2021/10/05 02:29:03;;;;;;;0.20;0.00;;;11.10;99.90;;;;;;5034686;28;20021;-77
2021/10/05 02:31:29;;;;;;;5.22;0.40;;;11.10;99.90;;;;;;5036038;28;20026;-77
2021/10/05 02:33:55;;;;;;;0.40;0.10;;;11.10;99.90;;;;;;5033190;28;20049;-76
2021/10/05 02:36:21;;;;;;;2.60;0.00;;;11.10;99.90;;;;;;5016780;28;20485;-76
2021/10/05 02:38:50;;;;;;;9.93;0.80;;;11.10;99.90;;;;;;5015914;28;20446;-76
2021/10/05 02:41:15;;;;;;;2.10;0.10;;;12.10;99.90;;;;;;5015051;28;20034;-77
2021/10/05 02:43:41;;;;;;;0.55;0.00;;;11.10;99.90;;;;;;5016363;28;20025;-76
2021/10/05 02:46:07;;;;;;;0.95;0.00;;;11.10;99.90;;;;;;5034476;28;20032;-75
2021/10/05 02:48:32;;;;;;;2.10;0.00;;;11.10;99.90;;;;;;5035702;28;20029;-75
2021/10/05 02:50:59;;;;;;;4.28;0.20;;;11.10;99.90;;;;;;5036507;28;20021;-75
2021/10/05 02:53:24;;;;;;;1.02;0.00;;;11.20;99.90;;;;;;5035601;28;20018;-75
2021/10/05 02:55:50;;;;;;;1.42;0.03;;;11.10;99.90;;;;;;5018616;28;20040;-75
2021/10/05 02:58:16;;;;;;;4.10;0.00;;;11.10;99.90;;;;;;5015625;28;20049;-74
2021/10/05 03:00:43;;;;;;;1.20;0.00;;;11.10;99.90;;;;;;5015795;28;20022;-75
2021/10/05 03:03:09;;;;;;;2.15;0.00;;;11.10;99.90;;;;;;5014585;28;20026;-76
2021/10/05 03:05:34;;;;;;;0.25;0.03;;;11.10;99.90;;;;;;5029635;28;20029;-74
2021/10/05 03:08:00;;;;;;;3.10;0.00;;;11.00;99.90;;;;;;5034674;28;20025;-75
2021/10/05 03:10:25;;;;;;;2.13;0.00;;;11.00;99.90;;;;;;5034854;28;20025;-75
2021/10/05 03:12:51;;;;;;;3.45;0.15;;;10.90;99.90;;;;;;5035119;28;20076;-75
2021/10/05 03:15:17;;;;;;;2.45;0.00;;;10.90;99.90;;;;;;5023602;28;20462;-75
2021/10/05 03:17:43;;;;;;;1.55;0.00;;;10.90;99.90;;;;;;5020389;28;20029;-75
2021/10/05 03:20:09;;;;;;;2.47;0.50;;;10.90;99.90;;;;;;5034567;28;20026;-75
2021/10/05 03:22:35;;;;;;;4.18;0.20;;;10.90;99.90;;;;;;5033404;28;20026;-76
2021/10/05 03:25:00;;;;;;;1.65;0.30;;;10.80;99.90;;;;;;5030734;28;20026;-76
2021/10/05 03:27:26;;;;;;;0.30;0.10;;;10.80;99.90;;;;;;5014794;28;20022;-75
2021/10/05 03:29:51;;;;;;;0.65;0.17;;;10.80;99.90;;;;;;5015248;28;20091;-75
2021/10/05 03:32:17;;;;;;;0.85;0.00;;;10.80;99.90;;;;;;5015327;28;20026;-76
2021/10/05 03:34:42;;;;;;;1.95;0.20;;;10.80;99.90;;;;;;5028760;28;20033;-74
2021/10/05 03:37:08;;;;;;;1.08;0.00;;;10.90;99.90;;;;;;5033668;28;20486;-74
2021/10/05 03:39:33;;;;;;;3.00;0.45;;;10.90;99.90;;;;;;5034612;28;20389;-75
2021/10/05 03:41:59;;;;;;;2.05;0.00;;;11.00;99.90;;;;;;5033062;28;20029;-75
2021/10/05 03:44:24;;;;;;;0.70;0.03;;;10.90;99.90;;;;;;5021404;28;20045;-78
2021/10/05 03:46:50;;;;;;;0.82;0.00;;;11.00;99.90;;;;;;5013503;28;20383;-77
2021/10/05 03:49:16;;;;;;;0.43;0.00;;;11.00;99.90;;;;;;5014928;28;20040;-78
2021/10/05 03:51:45;;;;;;;1.48;0.15;;;11.00;99.90;;;;;;5013418;28;20428;-77
2021/10/05 03:54:10;;;;;;;2.80;0.00;;;11.00;99.90;;;;;;5023141;28;20021;-78
2021/10/05 03:56:36;;;;;;;1.70;0.20;;;11.00;99.90;;;;;;5033031;28;20441;-78
2021/10/05 03:59:01;;;;;;;1.50;0.00;;;11.00;99.90;;;;;;5034023;28;20034;-77
2021/10/05 04:01:27;;;;;;;1.27;0.00;;;11.00;99.90;;;;;;5032931;28;20025;-76
2021/10/05 04:03:52;;;;;;;3.53;1.55;;;11.10;99.90;;;;;;5028590;28;20048;-76
2021/10/05 04:06:18;;;;;;;1.75;0.00;;;11.10;99.90;;;;;;5032896;28;20044;-76
2021/10/05 04:08:43;;;;;;;1.00;0.00;;;11.10;99.90;;;;;;5033717;28;20474;-77
2021/10/05 04:11:09;;;;;;;1.65;0.00;;;11.20;99.90;;;;;;5033895;28;20104;-76
2021/10/05 04:13:35;;;;;;;0.93;0.00;;;11.20;99.90;;;;;;5033977;28;20030;-78
2021/10/05 04:16:00;;;;;;;1.65;0.00;;;11.30;99.90;;;;;;5015307;28;20029;-77
2021/10/05 04:18:26;;;;;;;2.80;0.03;;;11.20;99.90;;;;;;5012793;28;20021;-78
2021/10/05 04:20:51;;;;;;;1.05;0.00;;;11.30;99.90;;;;;;5014091;28;20513;-78
2021/10/05 04:23:17;;;;;;;3.60;0.10;;;11.30;99.90;;;;;;5013999;28;20033;-78
2021/10/05 04:25:43;;;;;;;4.05;0.00;;;11.30;99.90;;;;;;5014607;28;20018;-77
2021/10/05 04:28:08;;;;;;;1.30;0.00;;;11.30;99.90;;;;;;5012702;28;20053;-75
2021/10/05 04:30:35;;;;;;;0.93;0.13;;;11.30;99.90;;;;;;5012443;28;20026;-76
2021/10/05 04:33:00;;;;;;;1.75;0.00;;;11.30;99.90;;;;;;5012750;28;20037;-76
2021/10/05 04:35:27;;;;;;;7.03;0.60;;;11.30;99.90;;;;;;5014162;28;20479;-76
2021/10/05 04:37:52;;;;;;;0.55;0.10;;;11.30;99.90;;;;;;5012014;28;20494;-76
2021/10/05 04:40:18;;;;;;;1.90;0.00;;;11.30;99.90;;;;;;5013904;28;20053;-76
2021/10/05 04:42:44;;;;;;;1.10;0.25;;;11.30;99.90;;;;;;5012913;28;20022;-76
2021/10/05 04:45:09;;;;;;;0.98;0.00;;;11.30;99.90;;;;;;5013797;28;20087;-76
2021/10/05 04:47:38;;;;;;;2.55;0.00;;;11.30;99.90;;;;;;5013858;28;20498;-75
2021/10/05 04:50:05;;;;;;;0.98;0.35;;;11.30;99.90;;;;;;5013773;28;20028;-75
2021/10/05 04:52:31;;;;;;;1.88;0.10;;;11.20;99.90;;;;;;5012248;28;20030;-74
2021/10/05 04:54:56;;;;;;;0.82;0.00;;;11.10;99.90;;;;;;5013560;28;20030;-74
2021/10/05 04:57:22;;;;;;;0.82;0.00;;;11.20;99.90;;;;;;5012339;28;20056;-74
2021/10/05 04:59:48;;;;;;;0.47;0.00;;;11.20;99.90;;;;;;5013455;28;20030;-73
2021/10/05 05:02:13;;;;;;;2.13;0.57;;;11.20;99.90;;;;;;5013629;28;20073;-73
2021/10/05 05:04:39;;;;;;;0.77;0.15;;;11.10;99.90;;;;;;5018175;28;20026;-76
2021/10/05 05:07:05;;;;;;;2.40;0.10;;;11.10;99.90;;;;;;5033440;28;20025;-76
2021/10/05 05:09:30;;;;;;;0.22;0.00;;;11.10;99.90;;;;;;5033214;28;20100;-75
2021/10/05 05:11:56;;;;;;;0.08;0.00;;;11.10;99.90;;;;;;5031854;28;20025;-74
2021/10/05 05:14:22;;;;;;;0.10;0.00;;;11.10;99.90;;;;;;5028994;28;20112;-74
2021/10/05 05:16:48;;;;;;;0.47;0.00;;;11.00;99.90;;;;;;5013638;28;20111;-74
2021/10/05 05:19:14;;;;;;;3.60;0.10;;;11.00;99.90;;;;;;5013625;28;20030;-74
2021/10/05 05:21:39;;;;;;;1.02;0.00;;;11.00;99.90;;;;;;5012567;28;20048;-75
2021/10/05 05:24:06;;;;;;;1.65;0.00;;;11.00;99.90;;;;;;5012349;28;20018;-75
2021/10/05 05:26:32;;;;;;;2.08;0.00;;;11.00;99.90;;;;;;5013366;28;20029;-73
2021/10/05 05:28:57;;;;;;;0.65;0.00;;;11.00;99.90;;;;;;5013092;28;20026;-74
2021/10/05 05:31:23;;;;;;;6.05;0.10;;;11.00;99.90;;;;;;5011948;28;20029;-75
2021/10/05 05:33:49;;;;;;;2.40;0.00;;;11.00;99.90;;;;;;5013213;28;20033;-75
2021/10/05 05:36:14;;;;;;;2.10;0.00;;;11.00;99.90;;;;;;5030635;28;20029;-75
2021/10/05 05:38:40;;;;;;;0.20;0.00;;;11.00;99.90;;;;;;5032555;28;20033;-74
2021/10/05 05:41:06;;;;;;;1.75;0.00;;;10.90;99.90;;;;;;5033211;28;20032;-74
2021/10/05 05:43:32;;;;;;;1.27;0.28;;;10.90;99.90;;;;;;5031476;28;20025;-73
2021/10/05 05:45:57;;;;;;;1.50;0.00;;;10.90;99.90;;;;;;5032257;28;20017;-73
2021/10/05 05:48:23;;;;;;;1.40;0.00;;;10.90;99.90;;;;;;5032765;28;20017;-73
2021/10/05 05:50:48;;;;;;;4.60;0.00;;;10.90;99.90;;;;;;5019875;28;20026;-73
2021/10/05 05:53:14;;;;;;;4.13;0.13;;;10.90;99.90;;;;;;5015299;28;20022;-72
2021/10/05 05:55:40;;;;;;;0.35;0.00;;;10.80;99.90;;;;;;5017182;28;20026;-74
2021/10/05 05:58:13;;;;;;;1.35;0.00;;;10.90;99.90;;;;;;5019861;28;20041;-73
2021/10/05 06:00:39;;;;;;;0.10;0.10;;;10.80;99.90;;;;;;5020433;28;20026;-76
2021/10/05 06:03:05;;;;;;;0.00;0.00;;;10.80;99.90;;;;;;5019617;28;20036;-76
2021/10/05 06:05:31;;;;;;;0.85;0.00;;;10.80;99.90;;;;;;5020790;28;20475;-77
2021/10/05 06:07:57;;;;;;;1.48;0.10;;;10.70;99.90;;;;;;5019833;28;20022;-77
2021/10/05 06:10:23;;;;;;;3.63;0.08;;;10.70;99.90;;;;;;5018943;28;20025;-78
2021/10/05 06:12:49;;;;;;;0.70;0.00;;;10.70;99.90;;;;;;5019443;28;20037;-78
2021/10/05 06:15:16;;;;;;;0.35;0.00;;;10.70;99.90;;;;;;5019570;28;20025;-73
2021/10/05 06:17:44;;;;;;;1.65;0.00;;;10.70;99.90;;;;;;5020521;28;20025;-74
2021/10/05 06:20:15;;;;;;;6.90;0.40;;;10.70;99.90;;;;;;5018892;28;20034;-75
2021/10/05 06:22:42;;;;;;;4.88;0.13;;;10.80;99.90;;;;;;5020629;28;20041;-74
2021/10/05 06:25:12;;;;;;;1.48;0.00;;;10.70;99.90;;;;;;5020134;28;20024;-74
2021/10/05 06:27:38;;;;;;;4.78;0.00;;;10.80;99.90;;;;;;5020137;28;20022;-75
2021/10/05 06:30:05;;;;;;;4.13;0.63;;;10.90;99.90;;;;;;5019630;28;20018;-74
2021/10/05 06:32:30;;;;;;;1.65;0.00;;;10.90;99.90;;;;;;5020096;28;20109;-74
2021/10/05 06:34:56;;;;;;;2.10;0.40;;;10.90;99.90;;;;;;5020344;28;20060;-75
2021/10/05 06:37:21;;;;;;;3.47;0.00;;;11.00;99.90;;;;;;5020096;28;20026;-75
2021/10/05 06:39:50;;;;;;;0.10;0.00;;;11.00;99.90;;;;;;5019898;28;20391;-75
2021/10/05 06:42:15;;;;;;;2.28;0.25;;;11.00;99.90;;;;;;5020122;28;20026;-75
2021/10/05 06:44:41;;;;;;;1.52;0.00;;;11.10;99.90;;;;;;5019135;28;20029;-75
2021/10/05 06:47:07;;;;;;;1.63;0.00;;;11.20;99.90;;;;;;5019474;28;20498;-75
2021/10/05 06:49:32;;;;;;;4.65;0.52;;;11.20;99.90;;;;;;5019800;28;20419;-75
2021/10/05 06:52:00;;;;;;;1.30;0.10;;;11.30;99.90;;;;;;5019969;28;20045;-75
2021/10/05 06:54:29;;;;;;;2.58;0.00;;;11.30;99.90;;;;;;5019473;28;20022;-75
2021/10/05 06:56:55;;;;;;;1.80;0.00;;;11.40;99.90;;;;;;5019735;28;20105;-75
2021/10/05 06:59:21;;;;;;;1.65;0.10;;;11.40;99.90;;;;;;5019020;28;20029;-75
2021/10/05 07:01:46;;;;;;;6.15;0.20;;;11.50;99.90;;;;;;5018484;28;20018;-75
2021/10/05 07:04:12;;;;;;;2.70;0.20;;;11.50;99.90;;;;;;5019145;28;20030;-74
2021/10/05 07:06:38;;;;;;;2.17;0.20;;;11.60;99.90;;;;;;5019330;28;20061;-75
2021/10/05 07:09:04;;;;;;;0.95;0.10;;;11.70;99.90;;;;;;5015150;28;20029;-75
2021/10/05 07:11:31;;;;;;;1.80;0.08;;;12.00;99.90;;;;;;5013855;28;20026;-74
2021/10/05 07:13:57;;;;;;;1.50;0.10;;;11.90;99.90;;;;;;5015678;28;20026;-75
2021/10/05 07:16:22;;;;;;;0.40;0.00;;;11.90;99.90;;;;;;5013889;28;20026;-75
2021/10/05 07:18:48;;;;;;;0.88;0.17;;;11.90;99.90;;;;;;5014928;28;20044;-74
2021/10/05 07:21:13;;;;;;;1.77;0.05;;;12.00;99.90;;;;;;5013796;28;20030;-75
2021/10/05 07:23:39;;;;;;;1.80;0.10;;;12.00;99.90;;;;;;5013714;28;20471;-74
2021/10/05 07:26:04;;;;;;;0.65;0.40;;;12.10;99.90;;;;;;5015033;28;20391;-75
2021/10/05 07:28:30;;;;;;;3.35;0.25;;;12.10;99.90;;;;;;5015269;28;20438;-75
2021/10/05 07:30:55;;;;;;;0.13;0.00;;;12.20;99.90;;;;;;5014682;28;20487;-75
2021/10/05 07:33:23;;;;;;;9.88;0.65;;;12.30;99.90;;;;;;5014920;28;20026;-75
2021/10/05 07:35:49;;;;;;;2.60;0.17;;;12.40;99.90;;;;;;5014899;28;20096;-75
2021/10/05 07:38:15;;;;;;;2.63;0.05;;;12.50;99.90;;;;;;5013447;28;20026;-74
2021/10/05 07:40:40;;;;;;;1.05;0.00;;;12.60;99.90;;;;;;5014524;28;20037;-74
2021/10/05 07:43:06;;;;;;;1.55;0.20;;;12.60;99.90;;;;;;5014889;28;20467;-75
2021/10/05 07:45:32;;;;;;;1.13;0.00;;;12.70;99.90;;;;;;5014754;28;20422;-74
2021/10/05 07:47:58;;;;;;;0.63;0.00;;;12.70;99.90;;;;;;5015086;28;20021;-74
2021/10/05 07:50:25;;;;;;;2.40;0.00;;;12.90;99.90;;;;;;5014786;28;20022;-74
2021/10/05 07:52:51;;;;;;;2.72;0.00;;;12.90;99.90;;;;;;5013228;28;20026;-75
2021/10/05 07:55:17;;;;;;;1.48;0.10;;;13.00;99.90;;;;;;5014493;28;20390;-74
2021/10/05 07:57:44;;;;;;;0.10;0.00;;;13.00;99.90;;;;;;5013145;28;20080;-75
2021/10/05 08:00:10;;;;;;;2.13;0.45;;;13.10;99.90;;;;;;5013026;28;20104;-74
2021/10/05 08:02:36;;;;;;;2.17;0.10;;;13.20;99.90;;;;;;5014127;28;20399;-75
2021/10/05 08:05:02;;;;;;;1.98;0.10;;;13.20;99.90;;;;;;5014300;28;20024;-74
2021/10/05 08:07:27;;;;;;;1.42;0.20;;;13.30;99.90;;;;;;5012891;28;20383;-75
2021/10/05 08:09:57;;;;;;;3.03;0.30;;;13.40;99.90;;;;;;5012884;28;20487;-75
2021/10/05 08:12:23;;;;;;;1.20;0.08;;;13.40;99.90;;;;;;5013855;28;20026;-75
2021/10/05 08:14:50;;;;;;;0.57;0.10;;;13.50;99.90;;;;;;5013842;28;20100;-75
2021/10/05 08:17:16;;;;;;;0.60;0.20;;;13.50;99.90;;;;;;5012760;28;20098;-75
2021/10/05 08:19:42;;;;;;;3.63;0.57;;;13.60;99.90;;;;;;5013882;28;20510;-76
2021/10/05 08:22:08;;;;;;;1.58;0.10;;;14.70;99.90;;;;;;5013957;28;20101;-76
2021/10/05 08:24:35;;;;;;;4.43;0.20;;;13.70;99.90;;;;;;5013834;28;20017;-75
2021/10/05 08:27:01;;;;;;;5.00;0.40;;;13.80;99.90;;;;;;5013949;28;20420;-75
2021/10/05 08:29:27;;;;;;;5.47;0.00;;;13.90;99.90;;;;;;5012666;28;20021;-76
2021/10/05 08:31:53;;;;;;;1.00;0.17;;;14.00;99.90;;;;;;5013747;28;20049;-75
2021/10/05 08:34:19;;;;;;;1.60;0.10;;;14.10;99.90;;;;;;5014441;28;20030;-75
2021/10/05 08:36:45;;;;;;;0.30;0.00;;;14.20;99.90;;;;;;5013848;28;20065;-75
2021/10/05 08:39:14;;;;;;;1.45;0.00;;;14.30;99.90;;;;;;5013757;28;20025;-76
2021/10/05 08:41:43;;;;;;;0.10;0.10;;;14.40;99.90;;;;;;5012474;28;20033;-75
2021/10/05 08:44:09;;;;;;;1.10;0.00;;;14.40;99.90;;;;;;5012440;28;20014;-75
2021/10/05 08:46:39;;;;;;;0.17;0.00;;;14.50;99.90;;;;;;5014088;28;20028;-75
2021/10/05 08:49:05;;;;;;;4.35;0.32;;;14.60;99.90;;;;;;5013632;28;20024;-75
2021/10/05 08:51:31;;;;;;;3.78;0.20;;;14.70;99.90;;;;;;5013545;28;20490;-75
2021/10/05 08:53:57;;;;;;;0.47;0.10;;;14.70;99.90;;;;;;5013633;28;20104;-75
2021/10/05 08:56:22;;;;;;;2.15;0.10;;;14.80;99.90;;;;;;5012323;28;20084;-75
2021/10/05 08:58:48;;;;;;;2.03;0.00;;;14.90;99.90;;;;;;5014137;28;20022;-75
2021/10/05 09:01:16;;;;;;;0.98;0.00;;;15.00;99.90;;;;;;5012338;28;20030;-75
2021/10/05 09:03:54;;;;;;;0.25;0.00;;;15.00;99.90;;;;;;5013554;28;20022;-75
2021/10/05 09:06:22;;;;;;;0.30;0.00;;;15.10;99.90;;;;;;5012454;28;20399;-75
2021/10/05 09:08:50;;;;;;;0.77;0.15;;;15.10;99.90;;;;;;5013879;28;20022;-75
2021/10/05 09:11:17;;;;;;;1.90;0.05;;;15.20;99.90;;;;;;5013480;28;20547;-75
2021/10/05 09:13:47;;;;;;;2.92;0.00;;;15.30;99.90;;;;;;5012338;28;20018;-75
2021/10/05 09:16:18;;;;;;;0.90;0.00;;;15.30;99.90;;;;;;5012147;28;20076;-76
2021/10/05 09:19:05;;;;;;;0.95;0.40;;;15.40;99.90;;;;;;5013325;28;20390;-75
2021/10/05 09:21:33;;;;;;;0.20;0.00;;;15.40;99.90;;;;;;5012089;28;20092;-75
2021/10/05 09:24:00;;;;;;;1.02;0.10;;;15.50;99.90;;;;;;5013561;28;20072;-75
2021/10/05 09:26:37;;;;;;;0.40;0.00;;;15.60;99.90;;;;;;5016000;28;20125;-76
2021/10/05 09:29:23;;;;;;;0.35;0.10;;;16.70;99.90;;;;;;5017170;28;20018;-75
2021/10/05 09:31:57;;;;;;;0.10;0.00;;;15.80;99.90;;;;;;5017180;28;20117;-75
2021/10/05 09:34:35;;;;;;;1.88;0.00;;;15.90;99.90;;;;;;5015873;28;20433;-75
2021/10/05 09:37:04;;;;;;;2.65;0.13;;;16.00;99.90;;;;;;5015896;28;20403;-75
2021/10/05 09:40:03;;;;;;;14.00;0.47;;;16.10;99.90;;;;;;5016881;28;20022;-74
2021/10/05 09:42:39;;;;;;;0.82;0.08;;;16.20;99.90;;;;;;5016758;28;20502;-75
2021/10/05 09:45:14;;;;;;;3.88;0.00;;;16.30;99.90;;;;;;5015636;28;20118;-75
2021/10/05 09:47:50;;;;;;;1.85;0.40;;;16.40;99.90;;;;;;5015704;28;20025;-75
2021/10/05 09:50:32;;;;;;;0.85;0.30;;;16.40;99.90;;;;;;5016861;28;20479;-75
2021/10/05 09:53:06;;;;;;;1.27;0.00;;;16.40;99.90;;;;;;5016891;28;20030;-75
2021/10/05 09:55:35;;;;;;;13.05;0.15;;;16.40;99.90;;;;;;5015385;28;20032;-74
2021/10/05 09:58:01;;;;;;;;;;;16.50;99.90;;;;;;5017058;28;20040;-74
2021/10/05 10:00:29;;;;;;;1.35;0.00;;;16.50;99.90;;;;;;5016583;28;20278;-74
2021/10/05 10:02:55;;;;;;;1.13;0.00;;;16.60;99.90;;;;;;5015332;28;20032;-74
2021/10/05 10:05:23;;;;;;;1.60;0.00;;;16.70;99.90;;;;;;5016509;28;20315;-75
2021/10/05 10:07:57;;;;;;;2.53;0.88;;;16.70;99.90;;;;;;5015279;28;20113;-75
2021/10/05 10:10:26;;;;;;;2.28;0.00;;;16.90;99.90;;;;;;5015177;28;20022;-75
2021/10/05 10:12:57;;;;;;;3.22;0.00;;;16.90;99.90;;;;;;5016857;28;20022;-75
2021/10/05 10:15:24;;;;;;;3.33;0.00;;;16.90;99.90;;;;;;5016371;28;20391;-75
2021/10/05 10:17:50;;;;;;;1.85;0.05;;;17.00;99.90;;;;;;5016089;28;20068;-75
2021/10/05 10:20:36;;;;;;;0.38;0.00;;;17.10;99.90;;;;;;5014868;28;20026;-74
2021/10/05 10:23:02;;;;;;;0.40;0.05;;;17.00;99.90;;;;;;5015092;28;20026;-75
2021/10/05 10:25:32;;;;;;;3.67;0.75;;;17.10;99.90;;;;;;5016127;28;20434;-75
2021/10/05 10:28:12;;;;;;;2.08;0.00;;;17.20;99.90;;;;;;5016384;28;20018;-75
2021/10/05 10:30:49;;;;;;;4.03;0.00;;;17.30;99.90;;;;;;5014524;28;20026;-75
2021/10/05 10:33:16;;;;;;;0.52;0.00;;;17.40;99.90;;;;;;5014703;28;20030;-75
2021/10/05 10:35:52;;;;;;;4.28;0.00;;;17.40;99.90;;;;;;5015789;28;20168;-75
2021/10/05 10:38:29;;;;;;;0.32;0.00;;;17.40;99.90;;;;;;5016338;28;20022;-75
2021/10/05 10:40:56;;;;;;;0.95;0.08;;;17.50;99.90;;;;;;5016084;28;20049;-75
2021/10/05 10:43:25;;;;;;;0.88;0.25;;;17.60;99.90;;;;;;5016227;28;20112;-75
2021/10/05 10:45:57;;;;;;;4.50;0.10;;;17.60;99.90;;;;;;5015945;28;20022;-75
2021/10/05 10:48:27;;;;;;;1.42;0.00;;;17.60;99.90;;;;;;5015696;28;20502;-75
2021/10/05 10:50:54;;;;;;;2.50;0.45;;;17.50;99.90;;;;;;5014355;28;20048;-75
2021/10/05 10:53:35;;;;;;;1.13;0.35;;;17.40;99.90;;;;;;5015574;28;20029;-75
2021/10/05 10:56:01;;;;;;;3.95;0.00;;;17.20;99.90;;;;;;5016278;28;20410;-75
2021/10/05 10:58:40;;;;;;;2.20;0.00;;;17.10;99.90;;;;;;5014266;28;20125;-75
2021/10/05 11:01:05;;;;;;;0.50;0.00;;;17.00;99.90;;;;;;5014246;28;20022;-75
2021/10/05 11:03:31;;;;;;;0.65;0.00;;;17.00;99.90;;;;;;5014014;28;20030;-75
2021/10/05 11:05:56;;;;;;;2.92;0.85;;;16.90;99.90;;;;;;5015409;28;20111;-73
2021/10/05 11:08:22;;;;;;;4.10;0.22;;;16.90;99.90;;;;;;5015283;28;20493;-73
2021/10/05 11:10:47;;;;;;;3.85;0.00;;;16.90;99.90;;;;;;5015141;28;20041;-73
2021/10/05 11:13:13;;;;;;;1.65;0.10;;;16.80;99.90;;;;;;5015266;28;20382;-73
2021/10/05 11:15:44;;;;;;;0.38;0.00;;;16.70;99.90;;;;;;5015193;28;20387;-73
2021/10/05 11:18:13;;;;;;;0.63;0.00;;;16.70;99.90;;;;;;5013910;28;20113;-75
2021/10/05 11:20:48;;;;;;;2.85;0.00;;;16.70;99.90;;;;;;5013831;28;20026;-75
2021/10/05 11:23:19;;;;;;;3.28;0.10;;;16.70;99.90;;;;;;5027890;23;20092;-73
2021/10/05 11:25:50;;;;;;;2.05;0.00;;;16.70;99.90;;;;;;5014983;28;20079;-73
2021/10/05 11:28:20;;;;;;;0.22;0.00;;;16.70;99.90;;;;;;5015382;28;20033;-73
2021/10/05 11:30:55;;;;;;;1.10;0.00;;;16.80;99.90;;;;;;5015192;28;20022;-73
2021/10/05 11:33:30;;;;;;;4.60;0.10;;;16.80;99.90;;;;;;5015137;28;20034;-73
2021/10/05 11:36:00;;;;;;;1.23;0.00;;;16.90;99.90;;;;;;5015111;28;20025;-73
2021/10/05 11:38:44;;;;;;;1.30;0.00;;;16.90;99.90;;;;;;5015091;28;20044;-73
2021/10/05 11:41:10;;;;;;;0.17;0.00;;;16.80;99.90;;;;;;5014881;28;20075;-73
2021/10/05 11:43:41;;;;;;;0.43;0.00;;;16.70;99.90;;;;;;5013425;28;20038;-73
2021/10/05 11:46:14;;;;;;;1.38;0.00;;;16.70;99.90;;;;;;5029885;28;20018;-73
2021/10/05 11:48:45;;;;;;;0.10;0.00;;;16.60;99.90;;;;;;5013452;28;20022;-73
2021/10/05 11:51:11;;;;;;;1.75;0.00;;;16.50;99.90;;;;;;5014555;28;20072;-73
2021/10/05 11:53:40;;;;;;;1.15;0.00;;;16.60;99.90;;;;;;5013248;28;20558;-73
2021/10/05 11:56:08;;;;;;;0.85;0.00;;;16.60;99.90;;;;;;5029906;28;20435;-75
2021/10/05 11:59:03;;;;;;;0.75;0.00;;;16.60;99.90;;;;;;5014483;28;20026;-75
2021/10/05 12:01:29;;;;;;;1.73;0.00;;;16.60;99.90;;;;;;5013397;28;20073;-75
2021/10/05 12:04:08;;;;;;;1.77;0.30;;;16.70;99.90;;;;;;5013093;28;20505;-75
2021/10/05 12:06:38;;;;;;;1.55;0.00;;;16.60;99.90;;;;;;5014624;28;20368;-75
2021/10/05 12:09:05;;;;;;;3.53;0.00;;;16.60;99.90;;;;;;5014852;28;20194;-75
2021/10/05 12:11:40;;;;;;;0.10;0.00;;;16.50;99.90;;;;;;5014274;28;20025;-75
2021/10/05 12:14:06;;;;;;;1.67;0.00;;;16.50;99.90;;;;;;5014354;28;20026;-75
2021/10/05 12:16:33;;;;;;;1.75;0.00;;;16.40;99.90;;;;;;5012962;28;20026;-75
2021/10/05 12:18:59;;;;;;;3.08;0.00;;;16.30;99.90;;;;;;5014340;28;20096;-75
2021/10/05 12:21:26;;;;;;;3.03;0.43;;;16.30;99.90;;;;;;5013972;28;20026;-75
2021/10/05 12:23:54;;;;;;;0.47;0.05;;;16.20;99.90;;;;;;5012678;28;20022;-75
2021/10/05 12:26:20;;;;;;;1.20;0.00;;;16.20;99.90;;;;;;5014381;28;20378;-75
2021/10/05 12:28:58;;;;;;;1.23;0.40;;;16.00;99.90;;;;;;5012572;28;20028;-75
2021/10/05 12:31:27;;;;;;;0.35;0.00;;;16.00;99.90;;;;;;5012714;28;20026;-75
2021/10/05 12:33:57;;;;;;;3.90;0.00;;;15.80;99.90;;;;;;5014147;28;20033;-75
2021/10/05 12:36:24;;;;;;;0.93;0.00;;;15.70;99.90;;;;;;5013909;28;20471;-76
2021/10/05 12:38:50;;;;;;;1.95;0.05;;;15.60;99.90;;;;;;5012632;28;20120;-76
2021/10/05 12:41:16;;;;;;;0.55;0.00;;;15.50;99.90;;;;;;5013795;28;20022;-76
2021/10/05 12:43:44;;;;;;;0.00;0.00;;;15.30;99.90;;;;;;5013630;28;20037;-76
2021/10/05 12:46:15;;;;;;;2.28;0.10;;;15.20;99.90;;;;;;5012442;28;20045;-76
2021/10/05 12:48:50;;;;;;;1.02;0.00;;;15.10;99.90;;;;;;5014153;28;20105;-76
2021/10/05 12:51:18;;;;;;;2.28;0.00;;;15.00;99.90;;;;;;5012348;28;20037;-76